Time;durP1;ratioP1;P1;durP2;ratioP2;P2;SDS_P1;SDS_P2;PMS_P1;PMS_P2;Temp;Humidity;BMP_temperature;BMP_pressure;BME280_temperature;BME280_humidity;BME280_pressure;Samples;Min_cycle;Max_cycle;Signal;HPM_P1;HPM_P2
2022/07/17 00:00:19;;;;;;;2.50;2.30;;;14.00;99.90;;;;;;4879312;29;20285;-64
2022/07/17 00:02:48;;;;;;;2.57;2.20;;;14.00;99.90;;;;;;4878850;29;20286;-63
2022/07/17 00:05:19;;;;;;;3.63;2.20;;;14.00;99.90;;;;;;4879103;29;20229;-64
2022/07/17 00:07:48;;;;;;;5.07;2.23;;;14.00;99.90;;;;;;4878527;29;20310;-63
2022/07/17 00:10:17;;;;;;;3.10;2.40;;;14.00;99.90;;;;;;4879254;29;20202;-64
2022/07/17 00:12:45;;;;;;;2.30;2.20;;;13.90;99.90;;;;;;4878653;29;20271;-64
2022/07/17 00:15:14;;;;;;;3.37;2.67;;;13.90;99.90;;;;;;4879175;29;20285;-64
2022/07/17 00:17:42;;;;;;;3.17;2.10;;;13.90;99.90;;;;;;4878688;29;20203;-63
2022/07/17 00:20:11;;;;;;;3.43;3.00;;;13.90;99.90;;;;;;4878916;29;20632;-63
2022/07/17 00:22:42;;;;;;;6.20;2.90;;;13.80;99.90;;;;;;4878564;29;20258;-64
2022/07/17 00:25:12;;;;;;;4.10;3.20;;;13.70;99.90;;;;;;4879053;29;20207;-64
2022/07/17 00:27:40;;;;;;;3.70;3.10;;;13.70;99.90;;;;;;4878596;29;20223;-63
2022/07/17 00:30:09;;;;;;;21.60;3.50;;;13.70;99.90;;;;;;4878704;29;20203;-64
2022/07/17 00:32:38;;;;;;;2.90;2.70;;;13.70;99.90;;;;;;4877416;29;20285;-64
2022/07/17 00:35:07;;;;;;;2.53;2.37;;;13.60;99.90;;;;;;4878660;29;20286;-63
2022/07/17 00:37:41;;;;;;;2.87;2.23;;;13.60;99.90;;;;;;4878604;29;20285;-63
2022/07/17 00:40:12;;;;;;;7.73;2.53;;;13.50;99.90;;;;;;4877552;29;20246;-63
2022/07/17 00:42:42;;;;;;;2.70;2.50;;;13.40;99.90;;;;;;4878745;29;20210;-63
2022/07/17 00:45:12;;;;;;;3.03;2.67;;;13.40;99.90;;;;;;4878592;29;20301;-63
2022/07/17 00:47:51;;;;;;;2.90;2.70;;;13.30;99.90;;;;;;4878786;29;20643;-64
2022/07/17 00:50:21;;;;;;;2.73;2.60;;;13.30;99.90;;;;;;4868185;29;20207;-64
2022/07/17 00:52:51;;;;;;;4.20;2.57;;;13.30;99.90;;;;;;4878989;29;20199;-64
2022/07/17 00:55:22;;;;;;;5.93;2.90;;;13.30;99.90;;;;;;4878985;29;20199;-64
2022/07/17 00:58:11;;;;;;;5.20;3.20;;;13.20;99.90;;;;;;4877741;29;20243;-64
2022/07/17 01:00:40;;;;;;;5.77;3.00;;;13.20;99.90;;;;;;4877187;29;20222;-64
2022/07/17 01:03:10;;;;;;;4.27;3.20;;;13.20;99.90;;;;;;4881920;29;20230;-64
2022/07/17 01:05:39;;;;;;;3.67;3.37;;;13.20;99.90;;;;;;4882800;29;20206;-64
2022/07/17 01:08:46;;;;;;;4.50;3.10;;;13.10;99.90;;;;;;4882374;29;20553;-64
2022/07/17 01:11:15;;;;;;;3.83;3.10;;;13.20;99.90;;;;;;4882705;29;20297;-64
2022/07/17 01:13:44;;;;;;;4.10;3.00;;;13.10;99.90;;;;;;4881046;29;20267;-64
2022/07/17 01:16:13;;;;;;;4.33;3.40;;;13.00;99.90;;;;;;4882383;29;20230;-64
2022/07/17 01:18:42;;;;;;;3.67;3.43;;;12.90;99.90;;;;;;4881274;29;20241;-64
2022/07/17 01:21:12;;;;;;;3.10;2.90;;;12.90;99.90;;;;;;4882425;29;20226;-64
2022/07/17 01:23:40;;;;;;;6.73;3.40;;;12.90;99.90;;;;;;4881837;29;20683;-64
2022/07/17 01:26:09;;;;;;;3.87;3.53;;;12.80;99.90;;;;;;4882125;29;20566;-64
2022/07/17 01:28:37;;;;;;;3.63;2.93;;;12.70;99.90;;;;;;4882082;29;20285;-64
2022/07/17 01:31:06;;;;;;;5.27;3.03;;;12.70;99.90;;;;;;4881938;29;20201;-63
2022/07/17 01:33:35;;;;;;;4.30;3.13;;;12.70;99.90;;;;;;4881748;29;20279;-64
2022/07/17 01:36:04;;;;;;;3.30;3.07;;;12.60;99.90;;;;;;4881871;29;20199;-64
2022/07/17 01:38:34;;;;;;;5.20;3.57;;;12.60;99.90;;;;;;4881701;29;20199;-63
2022/07/17 01:41:03;;;;;;;7.47;3.77;;;12.60;99.90;;;;;;4881914;29;20258;-64
2022/07/17 01:43:31;;;;;;;9.73;3.53;;;12.60;99.90;;;;;;4880298;29;20760;-64
2022/07/17 01:45:59;;;;;;;3.17;2.83;;;12.60;99.90;;;;;;4881831;29;20247;-64
2022/07/17 01:48:29;;;;;;;6.60;3.30;;;12.60;99.90;;;;;;4881820;29;20203;-64
2022/07/17 01:50:58;;;;;;;4.53;3.10;;;12.50;99.90;;;;;;4880574;29;20293;-64
2022/07/17 01:53:27;;;;;;;3.97;3.07;;;12.50;99.90;;;;;;4881963;29;20601;-64
2022/07/17 01:55:57;;;;;;;4.00;2.93;;;12.50;99.90;;;;;;4881685;29;20647;-64
2022/07/17 01:58:26;;;;;;;6.80;3.30;;;12.50;99.90;;;;;;4881509;29;20651;-64
2022/07/17 02:00:54;;;;;;;5.43;3.30;;;12.40;99.90;;;;;;4881358;29;20197;-64
2022/07/17 02:03:23;;;;;;;4.13;3.23;;;12.40;99.90;;;;;;4880218;29;20293;-64
2022/07/17 02:05:52;;;;;;;3.00;2.83;;;12.40;99.90;;;;;;4880268;29;20246;-64
2022/07/17 02:08:20;;;;;;;4.13;3.73;;;12.30;99.90;;;;;;4880061;29;20320;-64
2022/07/17 02:10:48;;;;;;;4.57;3.20;;;12.30;99.90;;;;;;4881453;29;20298;-64
2022/07/17 02:13:18;;;;;;;6.50;3.43;;;12.30;99.90;;;;;;4881347;29;20233;-64
2022/07/17 02:15:46;;;;;;;8.27;3.70;;;12.30;99.90;;;;;;4880627;29;20203;-64
2022/07/17 02:18:15;;;;;;;4.00;3.43;;;12.30;99.90;;;;;;4863116;29;20642;-64
2022/07/17 02:20:48;;;;;;;3.67;3.37;;;12.30;99.90;;;;;;4880696;29;20278;-64
2022/07/17 02:23:17;;;;;;;3.83;3.13;;;12.20;99.90;;;;;;4880290;29;20864;-64
2022/07/17 02:25:45;;;;;;;4.57;3.20;;;12.20;99.90;;;;;;4880528;29;20236;-64
2022/07/17 02:28:16;;;;;;;4.93;3.63;;;12.20;99.90;;;;;;4879186;29;20207;-64
2022/07/17 02:30:47;;;;;;;3.80;3.60;;;12.20;99.90;;;;;;4880689;29;20243;-64
2022/07/17 02:33:15;;;;;;;5.23;3.63;;;12.10;99.90;;;;;;4880486;29;20234;-64
2022/07/17 02:35:43;;;;;;;5.10;3.23;;;12.10;99.90;;;;;;4873370;29;20210;-64
2022/07/17 02:38:12;;;;;;;4.03;3.27;;;12.10;99.90;;;;;;4875175;29;20545;-64
2022/07/17 02:40:41;;;;;;;3.43;3.10;;;12.10;99.90;;;;;;4880565;29;20221;-64
2022/07/17 02:43:13;;;;;;;3.40;3.20;;;12.10;99.90;;;;;;4880336;29;20207;-64
2022/07/17 02:45:41;;;;;;;3.93;3.30;;;12.10;99.90;;;;;;4880381;29;20225;-64
2022/07/17 02:48:11;;;;;;;3.53;3.20;;;12.00;99.90;;;;;;4880115;29;20206;-63
2022/07/17 02:50:39;;;;;;;3.13;2.83;;;12.00;99.90;;;;;;4880010;29;20209;-64
2022/07/17 02:53:08;;;;;;;3.43;3.10;;;12.00;99.90;;;;;;4879885;29;20202;-64
2022/07/17 02:55:36;;;;;;;3.40;3.20;;;12.00;99.90;;;;;;4880063;29;20232;-63
2022/07/17 02:58:05;;;;;;;3.90;3.27;;;11.90;99.90;;;;;;4879724;29;20222;-64
2022/07/17 03:00:33;;;;;;;3.93;3.20;;;11.90;99.90;;;;;;4878779;29;20207;-64
2022/07/17 03:03:02;;;;;;;3.90;3.23;;;11.90;99.90;;;;;;4879672;29;20217;-64
2022/07/17 03:05:32;;;;;;;5.37;4.00;;;11.80;99.90;;;;;;4879601;29;20313;-64
2022/07/17 03:08:00;;;;;;;8.03;4.23;;;11.80;99.90;;;;;;4878594;29;20270;-64
2022/07/17 03:10:28;;;;;;;6.10;3.80;;;11.80;99.90;;;;;;4879727;29;20226;-64
2022/07/17 03:12:57;;;;;;;3.60;3.30;;;11.80;99.90;;;;;;4860990;29;20303;-64
2022/07/17 03:15:26;;;;;;;4.33;3.93;;;11.80;99.90;;;;;;4873857;29;20338;-63
2022/07/17 03:17:54;;;;;;;3.63;3.37;;;11.80;99.90;;;;;;4879579;29;20230;-64
2022/07/17 03:20:23;;;;;;;5.83;3.80;;;11.80;99.90;;;;;;4879754;29;20251;-64
2022/07/17 03:22:52;;;;;;;4.77;3.50;;;11.80;99.90;;;;;;4879384;29;20231;-64
2022/07/17 03:25:23;;;;;;;4.40;3.97;;;11.80;99.90;;;;;;4879133;29;20215;-64
2022/07/17 03:27:51;;;;;;;4.80;4.07;;;11.80;99.90;;;;;;4879350;29;20304;-63
2022/07/17 03:30:20;;;;;;;4.43;4.03;;;11.80;99.90;;;;;;4879227;29;20195;-63
2022/07/17 03:32:48;;;;;;;4.90;4.40;;;11.80;99.90;;;;;;4879445;29;20286;-64
2022/07/17 03:35:17;;;;;;;4.63;3.90;;;11.80;99.90;;;;;;4879174;29;20647;-63
2022/07/17 03:37:45;;;;;;;5.73;4.40;;;11.70;99.90;;;;;;4879354;29;20199;-63
2022/07/17 03:40:15;;;;;;;5.10;3.93;;;11.70;99.90;;;;;;4879112;29;20195;-64
2022/07/17 03:42:43;;;;;;;5.77;3.93;;;11.70;99.90;;;;;;4878142;29;20201;-64
2022/07/17 03:45:12;;;;;;;5.13;3.77;;;11.60;99.90;;;;;;4878447;29;20230;-63
2022/07/17 03:47:40;;;;;;;4.43;3.87;;;11.60;99.90;;;;;;4878366;29;20259;-64
2022/07/17 03:50:09;;;;;;;4.40;4.00;;;11.50;99.90;;;;;;4865701;29;20199;-64
2022/07/17 03:52:40;;;;;;;4.43;3.50;;;11.40;99.90;;;;;;4878079;29;20329;-64
2022/07/17 03:55:11;;;;;;;5.17;3.93;;;11.40;99.90;;;;;;4878907;29;20282;-64
2022/07/17 03:57:43;;;;;;;6.00;4.20;;;11.40;99.90;;;;;;4879124;29;20230;-64
2022/07/17 04:00:12;;;;;;;5.20;4.50;;;11.40;99.90;;;;;;4878940;29;20695;-63
2022/07/17 04:02:40;;;;;;;4.73;3.93;;;11.40;99.90;;;;;;4878947;29;20202;-64
2022/07/17 04:05:11;;;;;;;5.53;3.80;;;11.40;99.90;;;;;;4877565;29;20295;-63
2022/07/17 04:07:41;;;;;;;6.20;3.73;;;11.40;99.90;;;;;;4877654;29;20638;-64
2022/07/17 04:10:12;;;;;;;5.27;3.83;;;11.40;99.90;;;;;;4879011;29;20206;-64
2022/07/17 04:12:43;;;;;;;4.33;3.80;;;11.40;99.90;;;;;;4862247;29;20662;-64
2022/07/17 04:15:12;;;;;;;6.80;4.10;;;11.40;99.90;;;;;;4877656;29;20216;-64
2022/07/17 04:17:43;;;;;;;7.70;4.07;;;11.40;99.90;;;;;;4878828;29;20198;-64
2022/07/17 04:20:11;;;;;;;10.17;4.40;;;11.50;99.90;;;;;;4878846;29;20305;-63
2022/07/17 04:22:40;;;;;;;4.23;3.90;;;11.50;99.90;;;;;;4877365;29;20262;-64
2022/07/17 04:25:09;;;;;;;4.73;3.67;;;11.60;99.90;;;;;;4877533;29;20293;-64
2022/07/17 04:27:37;;;;;;;5.37;4.13;;;11.60;99.90;;;;;;4878887;29;20199;-64
2022/07/17 04:30:09;;;;;;;6.43;4.80;;;11.50;99.90;;;;;;4878756;29;20202;-64
2022/07/17 04:32:38;;;;;;;5.17;3.70;;;11.50;99.90;;;;;;4878834;29;20289;-64
2022/07/17 04:35:07;;;;;;;7.17;4.30;;;11.50;99.90;;;;;;4877624;29;20198;-64
2022/07/17 04:37:35;;;;;;;6.23;4.00;;;11.60;99.90;;;;;;4878558;29;20703;-64
2022/07/17 04:40:04;;;;;;;6.50;4.20;;;11.60;99.90;;;;;;4879464;29;20281;-63
2022/07/17 04:42:33;;;;;;;5.53;4.57;;;11.60;99.90;;;;;;4881253;29;20608;-63
2022/07/17 04:45:01;;;;;;;4.53;3.87;;;11.70;99.90;;;;;;4882478;29;20289;-64
2022/07/17 04:47:31;;;;;;;7.13;4.10;;;11.80;99.90;;;;;;4882602;29;20218;-63
2022/07/17 04:49:59;;;;;;;6.87;4.80;;;11.90;99.90;;;;;;4881039;29;20285;-64
2022/07/17 04:52:28;;;;;;;6.17;4.47;;;12.00;99.90;;;;;;4882520;29;20281;-64
2022/07/17 04:54:56;;;;;;;5.17;4.63;;;12.10;99.90;;;;;;4882268;29;20243;-64
2022/07/17 04:57:24;;;;;;;4.20;3.90;;;12.20;99.90;;;;;;4882136;29;20278;-63
2022/07/17 04:59:53;;;;;;;5.17;4.27;;;12.40;99.90;;;;;;4882118;29;20281;-64
2022/07/17 05:02:21;;;;;;;4.80;4.40;;;12.60;99.90;;;;;;4881163;29;20198;-64
2022/07/17 05:04:51;;;;;;;5.80;4.40;;;12.70;99.90;;;;;;4882146;29;20652;-64
2022/07/17 05:07:20;;;;;;;4.83;4.30;;;12.90;99.90;;;;;;4882048;29;20254;-64
2022/07/17 05:09:49;;;;;;;9.03;4.30;;;13.10;99.90;;;;;;4882004;29;20298;-64
2022/07/17 05:12:18;;;;;;;6.40;4.50;;;13.30;99.90;;;;;;4882001;29;20225;-64
2022/07/17 05:14:47;;;;;;;4.60;4.20;;;13.50;99.90;;;;;;4881154;29;20744;-64
2022/07/17 05:17:16;;;;;;;4.73;4.23;;;13.70;99.90;;;;;;4880911;29;20199;-64
2022/07/17 05:19:45;;;;;;;9.00;4.50;;;13.90;99.90;;;;;;4881015;29;20209;-63
2022/07/17 05:22:15;;;;;;;4.53;4.03;;;14.10;99.90;;;;;;4881805;29;20241;-64
2022/07/17 05:24:44;;;;;;;6.70;4.50;;;14.20;99.90;;;;;;4882213;29;20251;-64
2022/07/17 05:27:13;;;;;;;5.97;4.00;;;14.40;99.90;;;;;;4880939;29;20671;-64
2022/07/17 05:29:41;;;;;;;6.60;4.93;;;14.60;99.90;;;;;;4881931;29;20291;-64
2022/07/17 05:32:09;;;;;;;6.43;4.37;;;14.80;99.90;;;;;;4882353;29;20618;-64
2022/07/17 05:34:38;;;;;;;9.23;4.57;;;14.90;99.90;;;;;;4881836;29;20285;-64
2022/07/17 05:37:06;;;;;;;8.03;4.60;;;15.10;99.90;;;;;;4880829;29;20306;-64
2022/07/17 05:39:39;;;;;;;5.30;4.27;;;15.30;99.90;;;;;;4881101;29;20196;-64
2022/07/17 05:42:08;;;;;;;5.93;3.73;;;15.40;99.90;;;;;;4880904;29;20299;-64
2022/07/17 05:44:36;;;;;;;6.27;4.30;;;15.60;99.90;;;;;;4880375;29;20225;-64
2022/07/17 05:47:05;;;;;;;4.00;3.70;;;15.80;99.90;;;;;;4880368;29;20316;-64
2022/07/17 05:49:34;;;;;;;6.87;3.80;;;15.90;99.90;;;;;;4881434;29;20284;-64
2022/07/17 05:52:02;;;;;;;6.63;4.37;;;16.10;99.90;;;;;;4878916;29;20203;-65
2022/07/17 05:54:32;;;;;;;4.63;4.20;;;16.20;99.90;;;;;;4881030;29;20286;-64
2022/07/17 05:57:02;;;;;;;8.07;4.27;;;16.40;99.90;;;;;;4881228;29;20197;-65
2022/07/17 05:59:37;;;;;;;6.73;4.30;;;16.50;99.90;;;;;;4881150;29;20206;-64
2022/07/17 06:02:06;;;;;;;5.07;3.70;;;16.70;99.90;;;;;;4880920;29;20319;-65
2022/07/17 06:04:35;;;;;;;6.47;4.03;;;16.90;99.90;;;;;;4880821;29;20693;-65
2022/07/17 06:07:03;;;;;;;7.23;4.23;;;17.00;99.90;;;;;;4880792;29;20773;-65
2022/07/17 06:09:32;;;;;;;5.73;4.10;;;17.20;99.90;;;;;;4879448;29;20563;-65
2022/07/17 06:12:01;;;;;;;7.53;4.00;;;17.40;99.90;;;;;;4880817;29;20235;-64
2022/07/17 06:14:32;;;;;;;6.40;3.63;;;17.60;99.90;;;;;;4880086;29;20240;-65
2022/07/17 06:17:01;;;;;;;9.33;3.90;;;17.70;99.90;;;;;;4880484;29;20221;-65
2022/07/17 06:19:29;;;;;;;6.80;4.10;;;17.90;99.90;;;;;;4880016;29;20191;-65
2022/07/17 06:21:57;;;;;;;5.20;3.73;;;18.20;99.90;;;;;;4879983;29;20237;-65
2022/07/17 06:24:26;;;;;;;7.73;3.80;;;18.40;99.90;;;;;;4880500;29;20282;-65
2022/07/17 06:26:54;;;;;;;6.50;3.57;;;18.50;99.90;;;;;;4880227;29;20297;-65
2022/07/17 06:29:24;;;;;;;5.90;3.37;;;18.70;99.90;;;;;;4879201;29;20271;-65
2022/07/17 06:31:52;;;;;;;4.30;3.50;;;18.80;99.90;;;;;;4880534;29;20563;-65
2022/07/17 06:34:21;;;;;;;5.80;3.27;;;18.90;99.90;;;;;;4880381;29;20199;-65
2022/07/17 06:36:49;;;;;;;6.73;3.47;;;19.20;99.90;;;;;;4880678;29;20191;-65
2022/07/17 06:39:20;;;;;;;4.87;3.30;;;19.40;99.90;;;;;;4878954;29;20739;-65
2022/07/17 06:41:48;;;;;;;6.87;3.40;;;19.60;99.90;;;;;;4880378;29;20218;-65
2022/07/17 06:44:17;;;;;;;5.30;2.90;;;19.80;99.90;;;;;;4869215;29;20734;-65
2022/07/17 06:46:46;;;;;;;8.53;3.23;;;20.10;99.90;;;;;;4878873;29;20309;-65
2022/07/17 06:49:15;;;;;;;3.83;2.80;;;20.30;99.90;;;;;;4879845;29;20199;-65
2022/07/17 06:51:45;;;;;;;5.30;2.77;;;20.50;99.90;;;;;;4879801;29;20235;-66
2022/07/17 06:54:13;;;;;;;7.77;3.60;;;20.60;99.90;;;;;;4881455;29;20361;-65
2022/07/17 06:56:42;;;;;;;4.67;2.60;;;20.80;99.90;;;;;;4879927;29;20307;-66
2022/07/17 06:59:11;;;;;;;5.27;2.63;;;21.10;99.90;;;;;;4879168;29;20292;-65
2022/07/17 07:01:39;;;;;;;5.40;2.80;;;21.40;99.90;;;;;;4878354;29;20201;-66
2022/07/17 07:04:10;;;;;;;6.38;2.97;;;21.60;99.90;;;;;;4877688;29;20448;-66
2022/07/17 07:06:39;;;;;;;7.97;3.20;;;21.90;99.90;;;;;;4879396;29;20208;-66
2022/07/17 07:09:07;;;;;;;4.40;2.40;;;22.10;99.90;;;;;;4879349;29;20294;-66
2022/07/17 07:11:43;;;;;;;6.07;2.70;;;22.20;99.90;;;;;;4878515;29;20199;-66
2022/07/17 07:14:12;;;;;;;4.17;2.63;;;22.30;99.90;;;;;;4877210;29;20613;-66
2022/07/17 07:16:40;;;;;;;5.33;2.97;;;22.40;99.90;;;;;;4886959;29;20294;-66
2022/07/17 07:19:10;;;;;;;8.47;2.70;;;22.70;99.90;;;;;;4877993;29;20238;-66
2022/07/17 07:21:38;;;;;;;6.07;2.33;;;22.90;99.90;;;;;;4878567;29;20237;-63
2022/07/17 07:24:07;;;;;;;5.37;2.23;;;23.00;99.90;;;;;;4878744;29;20266;-63
2022/07/17 07:26:36;;;;;;;8.73;2.63;;;23.20;99.90;;;;;;4877718;29;20644;-63
2022/07/17 07:29:04;;;;;;;3.95;2.10;;;23.30;99.90;;;;;;4874499;29;20227;-63
2022/07/17 07:31:33;;;;;;;3.10;2.00;;;23.20;99.90;;;;;;4874451;29;20232;-63
2022/07/17 07:34:01;;;;;;;6.00;2.38;;;23.30;99.90;;;;;;4877821;29;20214;-63
2022/07/17 07:36:31;;;;;;;4.13;2.20;;;23.20;99.90;;;;;;4879419;29;20672;-63
2022/07/17 07:39:00;;;;;;;4.70;2.60;;;23.10;99.90;;;;;;4879223;29;20206;-63
2022/07/17 07:41:28;;;;;;;8.23;2.20;;;23.10;99.90;;;;;;4879236;29;20211;-63
2022/07/17 07:43:57;;;;;;;3.25;2.15;;;23.30;99.90;;;;;;4879197;29;20206;-63
2022/07/17 07:46:25;;;;;;;5.75;2.53;;;23.70;99.90;;;;;;4878029;29;20665;-65
2022/07/17 07:48:54;;;;;;;3.85;2.10;;;24.10;99.90;;;;;;4866812;29;20214;-65
2022/07/17 07:51:22;;;;;;;3.80;2.22;;;24.20;99.90;;;;;;4877988;29;20222;-65
2022/07/17 07:54:13;;;;;;;3.20;2.05;;;24.50;99.90;;;;;;4883695;29;20196;-63
2022/07/17 07:56:42;;;;;;;5.65;2.00;;;24.90;99.90;;;;;;4879002;29;20252;-63
2022/07/17 07:59:10;;;;;;;2.92;1.98;;;25.10;99.90;;;;;;4879038;29;20279;-63
2022/07/17 08:01:38;;;;;;;7.18;2.40;;;25.40;99.90;;;;;;4878869;29;20719;-63
2022/07/17 08:04:07;;;;;;;5.88;2.67;;;25.70;99.90;;;;;;4877551;29;20731;-64
2022/07/17 08:06:35;;;;;;;3.83;2.17;;;25.90;99.90;;;;;;4878797;29;20603;-63
2022/07/17 08:09:04;;;;;;;4.75;2.03;;;26.20;99.90;;;;;;4877113;29;20217;-63
2022/07/17 08:11:33;;;;;;;2.20;1.83;;;26.50;99.90;;;;;;4877651;29;20615;-64
2022/07/17 08:14:02;;;;;;;5.80;2.00;;;26.90;99.90;;;;;;4876910;29;20209;-64
2022/07/17 08:16:41;;;;;;;1.85;1.75;;;27.10;99.90;;;;;;4878432;29;20285;-63
2022/07/17 08:19:10;;;;;;;1.90;1.63;;;27.50;99.90;;;;;;4878286;29;20716;-64
2022/07/17 08:21:38;;;;;;;8.93;2.33;;;27.60;99.90;;;;;;4878369;29;20226;-63
2022/07/17 08:24:07;;;;;;;4.05;2.05;;;27.60;99.90;;;;;;4877036;29;20212;-63
2022/07/17 08:26:37;;;;;;;4.35;1.88;;;27.60;99.90;;;;;;4878556;29;20282;-63
2022/07/17 08:29:05;;;;;;;3.35;1.40;;;27.70;99.90;;;;;;4878101;29;20706;-63
2022/07/17 08:31:34;;;;;;;5.00;1.80;;;27.60;99.90;;;;;;4878275;29;20770;-64
2022/07/17 08:34:02;;;;;;;2.55;1.33;;;28.00;99.90;;;;;;4876917;29;20587;-63
2022/07/17 08:36:34;;;;;;;4.93;1.70;;;28.20;99.90;;;;;;4878360;29;20203;-63
2022/07/17 08:39:03;;;;;;;2.92;1.63;;;28.20;99.90;;;;;;4878332;29;20209;-64
2022/07/17 08:41:36;;;;;;;2.10;1.58;;;28.70;99.90;;;;;;4876947;29;20673;-64
2022/07/17 08:44:07;;;;;;;2.35;1.40;;;29.00;99.90;;;;;;4877918;29;20234;-64
2022/07/17 08:46:37;;;;;;;3.50;1.42;;;28.80;99.50;;;;;;4877998;29;20203;-63
2022/07/17 08:49:07;;;;;;;1.48;1.17;;;28.50;99.90;;;;;;4877738;29;20755;-63
2022/07/17 08:51:36;;;;;;;4.05;1.27;;;28.70;99.50;;;;;;4878511;29;20250;-63
2022/07/17 08:54:13;;;;;;;1.98;1.45;;;29.10;98.90;;;;;;4887856;29;20561;-64
2022/07/17 08:56:44;;;;;;;1.90;1.40;;;29.50;99.80;;;;;;4877952;29;20291;-64
2022/07/17 08:59:14;;;;;;;3.25;1.40;;;29.90;98.50;;;;;;4877897;29;20214;-63
2022/07/17 09:01:42;;;;;;;5.38;1.58;;;30.00;98.70;;;;;;4878008;29;20212;-64
2022/07/17 09:04:10;;;;;;;5.85;1.70;;;29.90;98.90;;;;;;4877779;29;20269;-63
2022/07/17 09:06:39;;;;;;;4.93;1.70;;;29.20;98.30;;;;;;4876633;29;20235;-63
2022/07/17 09:09:09;;;;;;;3.50;2.20;;;28.40;98.80;;;;;;4877832;29;20298;-63
2022/07/17 09:11:46;;;;;;;2.15;1.85;;;27.90;99.90;;;;;;4878040;29;20203;-63
2022/07/17 09:14:16;;;;;;;1.63;1.30;;;27.70;99.90;;;;;;4876422;29;20206;-64
2022/07/17 09:16:55;;;;;;;4.43;1.88;;;27.70;99.60;;;;;;4877029;29;20205;-63
2022/07/17 09:19:29;;;;;;;3.28;1.60;;;27.50;99.90;;;;;;4876971;29;20202;-63
2022/07/17 09:22:12;;;;;;;2.45;1.77;;;27.70;99.90;;;;;;4876734;29;20244;-63
2022/07/17 09:24:45;;;;;;;6.22;1.73;;;28.30;99.60;;;;;;4876823;29;20213;-64
2022/07/17 09:27:17;;;;;;;2.20;1.42;;;29.00;99.50;;;;;;4879755;29;20277;-63
2022/07/17 09:29:57;;;;;;;4.93;1.88;;;29.70;98.80;;;;;;4880738;29;20243;-64
2022/07/17 09:32:27;;;;;;;2.35;1.90;;;30.40;98.40;;;;;;4880686;29;20274;-64
2022/07/17 09:34:59;;;;;;;3.17;1.55;;;30.90;97.70;;;;;;4880238;29;20847;-64
2022/07/17 09:37:30;;;;;;;3.90;1.60;;;31.00;97.10;;;;;;4879273;29;20451;-63
2022/07/17 09:39:59;;;;;;;4.30;1.67;;;31.00;97.40;;;;;;4880614;29;20714;-63
2022/07/17 09:42:29;;;;;;;7.78;1.92;;;31.10;96.40;;;;;;4878957;29;20231;-63
2022/07/17 09:45:01;;;;;;;3.78;1.38;;;30.90;97.10;;;;;;4880365;29;20273;-64
2022/07/17 09:47:32;;;;;;;3.47;1.75;;;31.10;97.30;;;;;;4880586;29;20206;-64
2022/07/17 09:50:02;;;;;;;7.50;2.25;;;31.60;97.00;;;;;;4880682;29;20219;-64
2022/07/17 09:52:32;;;;;;;1.92;1.55;;;31.90;96.50;;;;;;4881936;29;20580;-64
2022/07/17 09:55:02;;;;;;;2.28;1.75;;;31.80;96.20;;;;;;4888237;29;20623;-64
2022/07/17 09:57:54;;;;;;;1.85;1.70;;;31.80;95.70;;;;;;4880502;29;20207;-63
2022/07/17 10:00:24;;;;;;;2.72;1.60;;;31.40;95.70;;;;;;4880067;29;20258;-64
2022/07/17 10:03:12;;;;;;;4.00;1.75;;;31.50;95.10;;;;;;4880086;29;20229;-64
2022/07/17 10:05:41;;;;;;;2.05;1.60;;;31.40;95.80;;;;;;4878452;29;21002;-63
2022/07/17 10:08:13;;;;;;;3.95;1.77;;;31.40;95.70;;;;;;4878700;29;20222;-63
2022/07/17 10:10:42;;;;;;;3.15;1.48;;;31.70;94.90;;;;;;4878694;29;20683;-64
2022/07/17 10:13:12;;;;;;;1.60;1.50;;;31.90;95.90;;;;;;4880041;29;20278;-64
2022/07/17 10:15:42;;;;;;;2.92;2.03;;;32.10;95.80;;;;;;4878609;29;20207;-64
2022/07/17 10:18:11;;;;;;;4.05;2.40;;;32.40;95.30;;;;;;4876175;29;20278;-64
2022/07/17 10:20:39;;;;;;;2.47;2.10;;;32.70;94.50;;;;;;4879586;29;20216;-64
2022/07/17 10:23:15;;;;;;;2.20;2.00;;;32.90;93.80;;;;;;4879709;29;20311;-63
2022/07/17 10:25:43;;;;;;;3.92;2.03;;;32.60;94.00;;;;;;4879707;29;20210;-63
2022/07/17 10:28:12;;;;;;;2.40;2.20;;;32.40;93.60;;;;;;4880101;29;20293;-63
2022/07/17 10:30:46;;;;;;;1.95;1.85;;;32.30;93.00;;;;;;4879640;29;20239;-63
2022/07/17 10:33:17;;;;;;;3.67;2.03;;;32.60;94.30;;;;;;4879652;29;20227;-63
2022/07/17 10:35:49;;;;;;;2.03;1.92;;;32.80;92.70;;;;;;4879551;29;20287;-63
2022/07/17 10:38:18;;;;;;;2.58;2.28;;;32.70;93.10;;;;;;4867211;29;20278;-63
2022/07/17 10:41:00;;;;;;;2.90;1.95;;;32.70;92.90;;;;;;4878117;29;20222;-64
2022/07/17 10:43:28;;;;;;;4.43;2.03;;;32.70;93.80;;;;;;4878402;29;20202;-63
2022/07/17 10:45:58;;;;;;;3.70;2.15;;;32.90;93.90;;;;;;4879217;29;20206;-63
2022/07/17 10:48:27;;;;;;;2.72;2.13;;;32.80;93.30;;;;;;4879525;29;20246;-63
2022/07/17 10:50:57;;;;;;;3.42;1.92;;;32.80;94.00;;;;;;4879009;29;20203;-63
2022/07/17 10:53:29;;;;;;;3.33;2.13;;;32.50;93.20;;;;;;4888296;29;20257;-63
2022/07/17 10:56:01;;;;;;;2.22;2.13;;;32.20;93.20;;;;;;4879617;29;20225;-63
2022/07/17 10:58:32;;;;;;;2.55;2.20;;;32.10;92.30;;;;;;4878176;29;20211;-64
2022/07/17 11:01:10;;;;;;;4.40;2.50;;;31.90;93.80;;;;;;4879009;29;20214;-63
2022/07/17 11:03:41;;;;;;;3.90;2.38;;;32.00;94.90;;;;;;4879154;29;20206;-63
2022/07/17 11:06:12;;;;;;;2.55;2.35;;;32.50;93.50;;;;;;4877705;29;20568;-63
2022/07/17 11:08:49;;;;;;;3.33;2.20;;;32.00;93.20;;;;;;4879257;29;20660;-63
2022/07/17 11:11:20;;;;;;;2.42;2.22;;;32.10;93.10;;;;;;4878879;29;20265;-63
2022/07/17 11:14:09;;;;;;;2.60;2.40;;;32.10;94.50;;;;;;4879432;29;20300;-63
2022/07/17 11:16:45;;;;;;;3.63;2.33;;;31.50;93.40;;;;;;4878772;29;20611;-63
2022/07/17 11:19:20;;;;;;;2.97;2.47;;;31.50;94.00;;;;;;4878632;29;20205;-63
2022/07/17 11:21:50;;;;;;;2.95;2.58;;;31.70;93.80;;;;;;4878728;29;20718;-64
2022/07/17 11:24:19;;;;;;;2.53;2.33;;;31.70;94.20;;;;;;4878887;29;20207;-64
2022/07/17 11:26:51;;;;;;;3.00;2.53;;;31.50;93.80;;;;;;4878507;29;20699;-64
2022/07/17 11:29:20;;;;;;;3.33;2.47;;;31.30;93.00;;;;;;4877450;29;20198;-63
2022/07/17 11:31:56;;;;;;;4.28;2.78;;;31.00;92.10;;;;;;4877708;29;20459;-63
2022/07/17 11:34:26;;;;;;;2.95;2.75;;;30.40;92.30;;;;;;4878701;29;20199;-63
2022/07/17 11:37:01;;;;;;;3.47;3.17;;;30.60;94.00;;;;;;4878496;29;20219;-63
2022/07/17 11:39:39;;;;;;;3.67;2.88;;;30.70;93.00;;;;;;4876976;29;20894;-63
2022/07/17 11:42:10;;;;;;;3.10;2.90;;;30.50;92.60;;;;;;4878608;29;20210;-63
2022/07/17 11:44:39;;;;;;;3.30;2.63;;;30.50;94.60;;;;;;4878889;29;20233;-63
2022/07/17 11:47:10;;;;;;;2.72;2.53;;;30.70;93.50;;;;;;4878660;29;20210;-63
2022/07/17 11:49:41;;;;;;;3.95;2.97;;;30.70;92.70;;;;;;4878590;29;20210;-63
2022/07/17 11:52:12;;;;;;;3.97;3.00;;;30.70;93.00;;;;;;4877135;29;20214;-63
2022/07/17 11:54:48;;;;;;;3.15;2.65;;;30.80;93.60;;;;;;4888711;29;20666;-63
2022/07/17 11:57:17;;;;;;;2.92;2.72;;;30.90;94.60;;;;;;4861433;29;20217;-63
2022/07/17 11:59:46;;;;;;;4.10;2.90;;;31.00;93.70;;;;;;4878107;29;20634;-66
2022/07/17 12:02:18;;;;;;;3.00;2.80;;;30.70;93.00;;;;;;4878174;29;20205;-66
2022/07/17 12:04:52;;;;;;;4.63;2.95;;;30.50;93.70;;;;;;4876831;29;20291;-66
2022/07/17 12:07:21;;;;;;;3.05;2.75;;;30.60;93.10;;;;;;4878197;29;20207;-66
2022/07/17 12:09:51;;;;;;;3.55;2.95;;;30.20;91.60;;;;;;4878066;29;20208;-66
2022/07/17 12:12:21;;;;;;;5.10;3.30;;;29.60;92.30;;;;;;4878087;29;20208;-66
2022/07/17 12:14:52;;;;;;;6.22;2.97;;;29.40;92.40;;;;;;4877766;29;20219;-65
2022/07/17 12:17:23;;;;;;;3.92;3.22;;;29.10;92.90;;;;;;4878214;29;20254;-66
2022/07/17 12:19:52;;;;;;;4.72;3.22;;;29.00;92.50;;;;;;4876724;29;20266;-66
2022/07/17 12:22:21;;;;;;;3.25;2.97;;;29.40;92.60;;;;;;4877754;29;20246;-66
2022/07/17 12:24:50;;;;;;;3.38;3.08;;;29.40;92.10;;;;;;4877979;29;20219;-66
2022/07/17 12:27:19;;;;;;;5.13;3.20;;;29.10;93.10;;;;;;4877975;29;20270;-66
2022/07/17 12:29:47;;;;;;;5.57;3.07;;;29.10;92.10;;;;;;4878219;29;20624;-66
2022/07/17 12:32:18;;;;;;;5.00;3.20;;;29.00;93.30;;;;;;4877989;29;20270;-66
2022/07/17 12:34:49;;;;;;;5.00;2.93;;;29.10;94.10;;;;;;4877900;29;20620;-65
2022/07/17 12:37:19;;;;;;;3.27;3.00;;;29.50;96.10;;;;;;4876771;29;20589;-65
2022/07/17 12:39:49;;;;;;;2.93;2.70;;;29.80;95.00;;;;;;4876382;29;20230;-66
2022/07/17 12:42:18;;;;;;;3.47;2.93;;;29.70;92.50;;;;;;4876497;29;20225;-66
2022/07/17 12:44:47;;;;;;;3.63;2.80;;;29.20;92.90;;;;;;4877998;29;20214;-65
2022/07/17 12:47:18;;;;;;;4.43;2.80;;;29.30;93.40;;;;;;4877642;29;20211;-66
2022/07/17 12:49:48;;;;;;;3.60;2.90;;;29.10;93.20;;;;;;4878075;29;20203;-65
2022/07/17 12:52:16;;;;;;;4.00;2.90;;;29.40;93.80;;;;;;4877564;29;20263;-66
2022/07/17 12:54:45;;;;;;;4.63;3.07;;;29.50;94.70;;;;;;4868295;29;20207;-66
2022/07/17 12:57:14;;;;;;;3.30;2.80;;;29.40;94.20;;;;;;4877736;29;20215;-65
2022/07/17 12:59:43;;;;;;;3.33;3.03;;;29.20;93.70;;;;;;4876504;29;20656;-65
2022/07/17 13:02:12;;;;;;;3.27;3.07;;;29.30;94.10;;;;;;4879894;29;20223;-66